Time;durP1;ratioP1;P1;durP2;ratioP2;P2;SDS_P1;SDS_P2;PMS_P1;PMS_P2;Temp;Humidity;BMP_temperature;BMP_pressure;BME280_temperature;BME280_humidity;BME280_pressure;Samples;Min_cycle;Max_cycle;Signal;HPM_P1;HPM_P2
2023/01/20 00:01:45;;;;;;;6.50;4.78;;;;;;;;;;5070407;28;20472;-59
2023/01/20 00:04:11;;;;;;;8.68;5.60;;;;;;;;;;5070789;28;20036;-60
2023/01/20 00:06:37;;;;;;;6.88;4.68;;;;;;;;;;5070664;28;20044;-59
2023/01/20 00:09:04;;;;;;;6.05;4.55;;;;;;;;;;5070460;28;20032;-61
2023/01/20 00:11:30;;;;;;;7.82;5.20;;;;;;;;;;5070634;28;20937;-60
2023/01/20 00:13:57;;;;;;;6.63;4.60;;;;;;;;;;5070520;28;20067;-60
2023/01/20 00:16:23;;;;;;;9.00;5.35;;;;;;;;;;5070737;28;20021;-60
2023/01/20 00:18:49;;;;;;;6.15;4.38;;;;;;;;;;5070452;28;20024;-59
2023/01/20 00:27:35;;;;;;;8.32;4.80;;;;;;;;;;5071199;28;20040;-60
2023/01/20 00:30:02;;;;;;;7.03;5.00;;;;;;;;;;5070289;28;20017;-59
2023/01/20 00:32:28;;;;;;;6.70;4.78;;;;;;;;;;5070643;28;20051;-60
2023/01/20 00:34:54;;;;;;;6.97;4.50;;;;;;;;;;5070335;28;20404;-60
2023/01/20 00:37:20;;;;;;;8.10;5.20;;;;;;;;;;5070504;28;20067;-59
2023/01/20 00:39:46;;;;;;;5.45;4.30;;;;;;;;;;5070350;28;20055;-60
2023/01/20 00:42:12;;;;;;;6.55;4.32;;;;;;;;;;5070527;28;20115;-59
2023/01/20 00:44:37;;;;;;;5.95;4.55;;;;;;;;;;5070810;28;20020;-60
2023/01/20 00:47:03;;;;;;;6.38;4.53;;;;;;;;;;5070189;28;20115;-59
2023/01/20 00:49:29;;;;;;;6.70;4.60;;;;;;;;;;5070393;28;20206;-59
2023/01/20 00:51:55;;;;;;;6.15;4.35;;;;;;;;;;5070122;28;20111;-58
2023/01/20 00:54:21;;;;;;;6.13;4.20;;;;;;;;;;5070363;28;20477;-59
2023/01/20 00:56:47;;;;;;;6.50;4.57;;;;;;;;;;5070161;28;20380;-59
2023/01/20 00:59:13;;;;;;;8.82;5.32;;;;;;;;;;5070301;28;20025;-59
2023/01/20 01:01:39;;;;;;;6.85;4.60;;;;;;;;;;5070531;28;20124;-59
2023/01/20 01:04:05;;;;;;;6.18;4.55;;;;;;;;;;5070504;28;20043;-59
2023/01/20 01:06:31;;;;;;;7.00;5.00;;;;;;;;;;5070026;28;20036;-59
2023/01/20 01:08:57;;;;;;;6.18;4.63;;;;;;;;;;5070099;28;20035;-60
2023/01/20 01:11:23;;;;;;;6.88;4.25;;;;;;;;;;5070239;28;20029;-59
2023/01/20 01:13:49;;;;;;;6.15;4.28;;;;;;;;;;5071128;28;20086;-59
2023/01/20 01:16:16;;;;;;;6.82;4.15;;;;;;;;;;5073712;28;20103;-59
2023/01/20 01:18:42;;;;;;;6.57;4.72;;;;;;;;;;5073539;28;20443;-58
2023/01/20 01:21:09;;;;;;;5.72;4.18;;;;;;;;;;5073967;28;20025;-59
2023/01/20 01:23:35;;;;;;;6.63;4.90;;;;;;;;;;5074078;28;20028;-59
2023/01/20 01:26:01;;;;;;;5.85;4.18;;;;;;;;;;5073291;28;20063;-59
2023/01/20 01:28:27;;;;;;;6.85;4.53;;;;;;;;;;5073532;28;20029;-59
2023/01/20 01:30:53;;;;;;;9.23;4.38;;;;;;;;;;5073244;28;20119;-59
2023/01/20 01:33:19;;;;;;;6.32;4.03;;;;;;;;;;5073374;28;20086;-59
2023/01/20 01:35:53;;;;;;;5.55;4.20;;;;;;;;;;5073257;28;20021;-59
2023/01/20 01:38:19;;;;;;;5.47;3.92;;;;;;;;;;5073417;28;20029;-59
2023/01/20 01:40:49;;;;;;;5.43;3.80;;;;;;;;;;5073092;28;20024;-59
2023/01/20 01:43:34;;;;;;;6.50;4.32;;;;;;;;;;5073267;28;20035;-59
2023/01/20 01:46:00;;;;;;;6.32;4.60;;;;;;;;;;5072860;28;20442;-59
2023/01/20 01:48:35;;;;;;;7.63;4.15;;;;;;;;;;5073223;28;20032;-59
2023/01/20 01:51:13;;;;;;;7.67;5.20;;;;;;;;;;5073013;28;20388;-59
2023/01/20 01:53:41;;;;;;;6.50;4.50;;;;;;;;;;5073399;28;20491;-59
2023/01/20 01:56:07;;;;;;;7.43;4.25;;;;;;;;;;5073397;28;20031;-59
2023/01/20 01:58:35;;;;;;;6.82;4.00;;;;;;;;;;5073056;28;20100;-59
2023/01/20 02:01:01;;;;;;;5.30;3.72;;;;;;;;;;5072791;28;20028;-59
2023/01/20 02:03:35;;;;;;;5.60;3.90;;;;;;;;;;5072935;28;20032;-59
2023/01/20 02:06:01;;;;;;;8.57;3.75;;;;;;;;;;5072473;28;20103;-59
2023/01/20 02:08:27;;;;;;;5.60;3.83;;;;;;;;;;5072904;28;20396;-59
2023/01/20 02:10:53;;;;;;;4.97;3.70;;;;;;;;;;5072517;28;20103;-59
2023/01/20 02:13:19;;;;;;;5.85;3.97;;;;;;;;;;5072846;28;20024;-59
2023/01/20 02:16:04;;;;;;;4.40;3.50;;;;;;;;;;5072443;28;20074;-59
2023/01/20 02:18:38;;;;;;;5.45;3.97;;;;;;;;;;5072562;28;20038;-60
2023/01/20 02:21:19;;;;;;;5.40;3.88;;;;;;;;;;5072377;28;20025;-59
2023/01/20 02:24:00;;;;;;;5.03;3.67;;;;;;;;;;5072201;28;20067;-59
2023/01/20 02:26:44;;;;;;;6.63;3.92;;;;;;;;;;5072442;28;20492;-59
2023/01/20 02:29:10;;;;;;;4.53;3.45;;;;;;;;;;5072344;28;20503;-59
2023/01/20 02:31:54;;;;;;;5.00;3.88;;;;;;;;;;5072507;28;20091;-59
2023/01/20 02:34:43;;;;;;;5.47;3.60;;;;;;;;;;5072290;28;20020;-59
2023/01/20 02:37:14;;;;;;;5.90;3.60;;;;;;;;;;5059523;28;20039;-59
2023/01/20 02:39:40;;;;;;;4.38;3.17;;;;;;;;;;5071945;28;20040;-59
2023/01/20 02:42:15;;;;;;;4.93;3.75;;;;;;;;;;5072282;28;20025;-59
2023/01/20 02:44:50;;;;;;;4.82;3.90;;;;;;;;;;5071844;28;20541;-59
2023/01/20 02:47:25;;;;;;;4.43;3.60;;;;;;;;;;5071991;28;20044;-59
2023/01/20 02:49:51;;;;;;;4.15;2.95;;;;;;;;;;5071738;28;20028;-59
2023/01/20 02:52:25;;;;;;;4.57;3.25;;;;;;;;;;5071875;28;20025;-59
2023/01/20 02:54:52;;;;;;;6.40;3.30;;;;;;;;;;5071769;28;20035;-59
2023/01/20 02:57:22;;;;;;;5.30;3.90;;;;;;;;;;5071785;28;20081;-59
2023/01/20 02:59:52;;;;;;;5.13;3.53;;;;;;;;;;5071505;28;20024;-59
2023/01/20 03:02:23;;;;;;;5.63;3.40;;;;;;;;;;5071743;28;20028;-58
2023/01/20 03:05:07;;;;;;;4.65;3.55;;;;;;;;;;5071340;28;20028;-58
2023/01/20 03:07:35;;;;;;;4.18;3.25;;;;;;;;;;5071042;28;20101;-58
2023/01/20 03:10:05;;;;;;;4.00;3.25;;;;;;;;;;5071503;28;20416;-59
2023/01/20 03:12:36;;;;;;;4.85;3.47;;;;;;;;;;5053990;28;20052;-59
2023/01/20 03:15:02;;;;;;;4.15;2.95;;;;;;;;;;5071357;28;20020;-58
2023/01/20 03:17:28;;;;;;;5.00;2.88;;;;;;;;;;5071493;28;20038;-58
2023/01/20 03:19:54;;;;;;;4.13;3.05;;;;;;;;;;5071173;28;20462;-58
2023/01/20 03:22:20;;;;;;;4.90;3.20;;;;;;;;;;5071425;28;20024;-59
2023/01/20 03:24:46;;;;;;;5.63;3.65;;;;;;;;;;5071167;28;20085;-59
2023/01/20 03:27:13;;;;;;;3.85;2.75;;;;;;;;;;5071175;28;20036;-58
2023/01/20 03:29:39;;;;;;;4.85;3.47;;;;;;;;;;5071609;28;20158;-58
2023/01/20 03:32:06;;;;;;;4.38;3.05;;;;;;;;;;5071109;28;20024;-58
2023/01/20 03:34:34;;;;;;;5.20;3.70;;;;;;;;;;5071089;28;20029;-58
2023/01/20 03:37:00;;;;;;;3.50;2.38;;;;;;;;;;5070521;28;20219;-58
2023/01/20 03:39:26;;;;;;;4.72;3.30;;;;;;;;;;5071177;28;20024;-58
2023/01/20 03:41:52;;;;;;;4.90;3.13;;;;;;;;;;5070872;28;20146;-58
2023/01/20 03:44:23;;;;;;;4.78;3.25;;;;;;;;;;5071068;28;20107;-58
2023/01/20 03:46:53;;;;;;;4.20;2.97;;;;;;;;;;5070674;28;20515;-58
2023/01/20 03:49:19;;;;;;;5.60;3.17;;;;;;;;;;5071263;28;20459;-58
2023/01/20 03:52:06;;;;;;;4.20;2.50;;;;;;;;;;5070816;28;20108;-58
2023/01/20 03:54:44;;;;;;;4.47;3.00;;;;;;;;;;5070880;28;20054;-58
2023/01/20 03:57:21;;;;;;;4.30;2.90;;;;;;;;;;5070945;28;20472;-58
2023/01/20 03:59:47;;;;;;;3.17;2.53;;;;;;;;;;5070776;28;20020;-58
2023/01/20 04:02:13;;;;;;;4.35;2.83;;;;;;;;;;5070673;28;20039;-58
2023/01/20 04:04:41;;;;;;;3.85;2.92;;;;;;;;;;5070969;28;20020;-58
2023/01/20 04:07:10;;;;;;;5.93;3.20;;;;;;;;;;5070891;28;20507;-58
2023/01/20 04:09:39;;;;;;;4.55;2.92;;;;;;;;;;5070979;28;20016;-59
2023/01/20 04:12:05;;;;;;;3.45;2.42;;;;;;;;;;5071057;28;20111;-59
2023/01/20 04:14:31;;;;;;;3.63;2.63;;;;;;;;;;5070834;28;20049;-59
2023/01/20 04:16:58;;;;;;;3.38;2.58;;;;;;;;;;5070481;28;20025;-58
2023/01/20 04:19:25;;;;;;;5.10;2.92;;;;;;;;;;5070771;28;20048;-58
2023/01/20 04:22:09;;;;;;;4.35;2.80;;;;;;;;;;5070418;28;20024;-59
2023/01/20 04:24:38;;;;;;;5.82;3.33;;;;;;;;;;5070967;28;20039;-58
2023/01/20 04:27:04;;;;;;;4.38;2.53;;;;;;;;;;5070291;28;20039;-59
2023/01/20 04:29:30;;;;;;;3.47;2.63;;;;;;;;;;5070643;28;20107;-58
2023/01/20 04:32:00;;;;;;;3.83;2.63;;;;;;;;;;5070372;28;20051;-58
2023/01/20 04:34:26;;;;;;;3.97;3.10;;;;;;;;;;5070520;28;20074;-58
2023/01/20 04:36:52;;;;;;;4.47;2.97;;;;;;;;;;5070257;28;20024;-58
2023/01/20 04:39:18;;;;;;;4.05;2.65;;;;;;;;;;5070553;28;20028;-58
2023/01/20 04:41:44;;;;;;;4.03;2.90;;;;;;;;;;5070286;28;20025;-58
2023/01/20 04:44:10;;;;;;;3.60;2.20;;;;;;;;;;5070389;28;20025;-58
2023/01/20 04:46:36;;;;;;;4.60;2.72;;;;;;;;;;5070610;28;20038;-58
2023/01/20 04:49:02;;;;;;;3.92;2.75;;;;;;;;;;5071750;28;20025;-58
2023/01/20 04:51:28;;;;;;;4.60;2.88;;;;;;;;;;5074257;28;20029;-59
2023/01/20 04:53:57;;;;;;;4.88;2.90;;;;;;;;;;5073960;28;20047;-59
2023/01/20 04:56:23;;;;;;;3.78;2.40;;;;;;;;;;5074228;28;20110;-58
2023/01/20 04:58:49;;;;;;;3.80;2.83;;;;;;;;;;5073765;28;20024;-59
2023/01/20 05:01:15;;;;;;;5.88;2.70;;;;;;;;;;5074064;28;20024;-58
2023/01/20 05:03:41;;;;;;;3.88;2.72;;;;;;;;;;5073541;28;20031;-58
2023/01/20 05:06:09;;;;;;;3.90;2.53;;;;;;;;;;5073983;28;20037;-58
2023/01/20 05:08:35;;;;;;;3.95;3.15;;;;;;;;;;5074287;28;20032;-58
2023/01/20 05:11:01;;;;;;;4.20;2.72;;;;;;;;;;5073574;28;20546;-59
2023/01/20 05:13:27;;;;;;;4.00;2.58;;;;;;;;;;5073918;28;20035;-59
2023/01/20 05:15:53;;;;;;;3.95;2.40;;;;;;;;;;5073548;28;20437;-59
2023/01/20 05:18:19;;;;;;;3.78;2.33;;;;;;;;;;5073706;28;20063;-59
2023/01/20 05:20:46;;;;;;;3.22;2.08;;;;;;;;;;5073601;28;20052;-59
2023/01/20 05:23:12;;;;;;;4.07;2.42;;;;;;;;;;5073742;28;20056;-58
2023/01/20 05:25:38;;;;;;;4.90;3.17;;;;;;;;;;5073830;28;20030;-59
2023/01/20 05:28:04;;;;;;;3.20;2.47;;;;;;;;;;5073499;28;20127;-59
2023/01/20 05:30:30;;;;;;;3.75;2.33;;;;;;;;;;5073425;28;20064;-58
2023/01/20 05:32:56;;;;;;;3.05;2.20;;;;;;;;;;5073100;28;20036;-58
2023/01/20 05:35:22;;;;;;;6.20;2.63;;;;;;;;;;5073450;28;20021;-59
2023/01/20 05:37:52;;;;;;;3.30;2.35;;;;;;;;;;5073143;28;20112;-59
2023/01/20 05:40:18;;;;;;;3.22;2.03;;;;;;;;;;5073380;28;20078;-59
2023/01/20 05:42:44;;;;;;;4.10;2.20;;;;;;;;;;5073022;28;20036;-59
2023/01/20 05:45:10;;;;;;;4.07;2.22;;;;;;;;;;5073522;28;20017;-59
2023/01/20 05:47:36;;;;;;;4.18;2.63;;;;;;;;;;5073352;28;20492;-58
2023/01/20 05:50:02;;;;;;;4.20;2.33;;;;;;;;;;5072998;28;20032;-58
2023/01/20 05:52:28;;;;;;;3.80;2.30;;;;;;;;;;5073086;28;20043;-58
2023/01/20 05:54:54;;;;;;;3.30;2.20;;;;;;;;;;5072861;28;20025;-59
2023/01/20 05:57:23;;;;;;;2.88;1.92;;;;;;;;;;5073079;28;20389;-59
2023/01/20 05:59:50;;;;;;;3.05;2.30;;;;;;;;;;5072492;28;20028;-58
2023/01/20 06:02:18;;;;;;;3.22;2.20;;;;;;;;;;5073004;28;20025;-58
2023/01/20 06:04:46;;;;;;;3.70;2.05;;;;;;;;;;5072822;28;20017;-59
2023/01/20 06:07:13;;;;;;;3.15;2.15;;;;;;;;;;5072786;28;20040;-58
2023/01/20 06:09:39;;;;;;;3.33;2.30;;;;;;;;;;5073253;28;20024;-59
2023/01/20 06:12:05;;;;;;;3.70;2.45;;;;;;;;;;5072270;28;20028;-57
2023/01/20 06:14:31;;;;;;;3.20;2.22;;;;;;;;;;5072061;28;20093;-58
2023/01/20 06:16:57;;;;;;;4.03;2.35;;;;;;;;;;5071672;28;20032;-59
2023/01/20 06:19:23;;;;;;;2.72;1.83;;;;;;;;;;5072331;28;20025;-59
2023/01/20 06:21:49;;;;;;;2.63;1.90;;;;;;;;;;5071552;28;20503;-58
2023/01/20 06:24:15;;;;;;;2.70;1.90;;;;;;;;;;5072748;28;20029;-59
2023/01/20 06:26:41;;;;;;;4.40;2.08;;;;;;;;;;5071790;28;20033;-58
2023/01/20 06:29:07;;;;;;;3.22;2.08;;;;;;;;;;5071939;28;20066;-57
2023/01/20 06:31:33;;;;;;;3.97;2.10;;;;;;;;;;5071834;28;20020;-55
2023/01/20 06:33:59;;;;;;;2.88;1.98;;;;;;;;;;5071283;28;20029;-57
2023/01/20 06:36:24;;;;;;;2.88;1.80;;;;;;;;;;5070951;28;20032;-57
2023/01/20 06:38:51;;;;;;;2.45;1.73;;;;;;;;;;5071812;28;20032;-57
2023/01/20 06:41:18;;;;;;;3.05;1.92;;;;;;;;;;5072231;28;20388;-58
2023/01/20 06:43:44;;;;;;;2.35;1.40;;;;;;;;;;5071822;28;20052;-57
2023/01/20 06:46:12;;;;;;;2.22;1.63;;;;;;;;;;5071381;28;20107;-57
2023/01/20 06:48:38;;;;;;;3.25;1.90;;;;;;;;;;5072144;28;20067;-58
2023/01/20 06:51:09;;;;;;;3.80;2.30;;;;;;;;;;5070449;28;20052;-59
2023/01/20 06:53:35;;;;;;;7.28;1.85;;;;;;;;;;5072166;28;20094;-59
2023/01/20 06:56:01;;;;;;;3.30;1.60;;;;;;;;;;5071736;28;20028;-58
2023/01/20 06:58:28;;;;;;;4.07;1.95;;;;;;;;;;5071065;28;20116;-59
2023/01/20 07:00:55;;;;;;;3.67;1.60;;;;;;;;;;5071314;28;20059;-59
2023/01/20 07:03:21;;;;;;;5.45;1.88;;;;;;;;;;5071804;28;20036;-58
2023/01/20 07:05:53;;;;;;;3.70;1.80;;;;;;;;;;5071057;28;20101;-58
2023/01/20 07:08:19;;;;;;;3.47;2.10;;;;;;;;;;5071565;28;20412;-58
2023/01/20 07:10:45;;;;;;;4.22;2.33;;;;;;;;;;5071072;28;20025;-59
2023/01/20 07:13:11;;;;;;;4.50;2.40;;;;;;;;;;5071378;28;20465;-58
2023/01/20 07:15:37;;;;;;;5.60;2.72;;;;;;;;;;5071852;28;20020;-57
2023/01/20 07:18:03;;;;;;;6.05;3.08;;;;;;;;;;5071269;28;20031;-57
2023/01/20 07:20:29;;;;;;;8.50;3.88;;;;;;;;;;5070923;28;20496;-58
2023/01/20 07:22:55;;;;;;;6.65;3.50;;;;;;;;;;5071229;28;20017;-57
2023/01/20 07:25:21;;;;;;;7.22;3.45;;;;;;;;;;5071407;28;20443;-58
2023/01/20 07:27:47;;;;;;;7.13;4.10;;;;;;;;;;5071195;28;20039;-57
2023/01/20 07:30:13;;;;;;;8.13;3.83;;;;;;;;;;5071531;28;20455;-57
2023/01/20 07:32:39;;;;;;;8.10;3.78;;;;;;;;;;5071726;28;20078;-58
2023/01/20 07:35:05;;;;;;;6.40;3.50;;;;;;;;;;5070513;28;20024;-56
2023/01/20 07:37:31;;;;;;;6.20;3.40;;;;;;;;;;5071336;28;20023;-56
2023/01/20 07:39:57;;;;;;;5.93;3.47;;;;;;;;;;5071015;28;20024;-57
2023/01/20 07:42:23;;;;;;;8.27;3.03;;;;;;;;;;5071143;28;20107;-57
2023/01/20 07:44:49;;;;;;;10.38;3.42;;;;;;;;;;5070368;28;20036;-59
2023/01/20 07:47:15;;;;;;;12.25;3.30;;;;;;;;;;5071246;28;20068;-59
2023/01/20 07:49:41;;;;;;;9.57;3.42;;;;;;;;;;5070359;28;20020;-59
2023/01/20 07:52:07;;;;;;;9.57;3.40;;;;;;;;;;5071573;28;20028;-59
2023/01/20 07:54:33;;;;;;;5.82;2.88;;;;;;;;;;5071058;28;20099;-59
2023/01/20 07:56:59;;;;;;;8.07;3.50;;;;;;;;;;5070767;28;20028;-59
2023/01/20 07:59:25;;;;;;;10.55;3.72;;;;;;;;;;5070506;28;20047;-59
2023/01/20 08:01:51;;;;;;;10.30;3.47;;;;;;;;;;5070854;28;20032;-58
2023/01/20 08:04:17;;;;;;;7.72;3.47;;;;;;;;;;5069839;28;20485;-57
2023/01/20 08:06:43;;;;;;;6.97;3.22;;;;;;;;;;5055501;28;20111;-58
2023/01/20 08:09:11;;;;;;;8.15;2.83;;;;;;;;;;5071306;28;20431;-58
2023/01/20 08:11:38;;;;;;;7.53;3.03;;;;;;;;;;5070707;28;20036;-58
2023/01/20 08:14:03;;;;;;;6.72;3.10;;;;;;;;;;5069764;28;20070;-57
2023/01/20 08:16:30;;;;;;;6.30;3.13;;;;;;;;;;5070661;28;20028;-58
2023/01/20 08:18:56;;;;;;;6.60;3.10;;;;;;;;;;5070627;28;20032;-58
2023/01/20 08:21:26;;;;;;;5.97;2.63;;;;;;;;;;5068803;28;20033;-58
2023/01/20 08:23:51;;;;;;;7.65;2.95;;;;;;;;;;5071632;28;20028;-58
2023/01/20 08:26:18;;;;;;;5.10;3.08;;;;;;;;;;5073595;28;20044;-59
2023/01/20 08:28:44;;;;;;;8.45;3.20;;;;;;;;;;5072331;28;20133;-58
2023/01/20 08:31:11;;;;;;;4.63;2.67;;;;;;;;;;5073294;28;20043;-59
2023/01/20 08:33:37;;;;;;;6.97;3.08;;;;;;;;;;5073231;28;20050;-59
2023/01/20 08:36:15;;;;;;;6.60;2.95;;;;;;;;;;5072719;28;20400;-59
2023/01/20 08:38:41;;;;;;;7.82;2.85;;;;;;;;;;5072827;28;20066;-59
2023/01/20 08:41:12;;;;;;;7.15;3.15;;;;;;;;;;5073648;28;20029;-59
2023/01/20 08:43:38;;;;;;;5.93;2.88;;;;;;;;;;5073469;28;20065;-59
2023/01/20 08:46:06;;;;;;;5.40;2.78;;;;;;;;;;5073315;28;20504;-59
2023/01/20 08:48:32;;;;;;;6.15;2.85;;;;;;;;;;5074639;28;20032;-59
2023/01/20 08:50:58;;;;;;;6.00;2.88;;;;;;;;;;5074286;28;20583;-59
2023/01/20 08:53:24;;;;;;;5.10;2.22;;;;;;;;;;5074553;28;20065;-59
2023/01/20 08:55:57;;;;;;;5.10;2.92;;;;;;;;;;5074113;28;20024;-59
2023/01/20 08:58:24;;;;;;;8.13;2.90;;;;;;;;;;5074438;28;20028;-59
2023/01/20 09:00:50;;;;;;;5.88;3.08;;;;;;;;;;5074261;28;20552;-59
2023/01/20 09:03:16;;;;;;;6.05;2.75;;;;;;;;;;5074406;28;20060;-59
2023/01/20 09:05:42;;;;;;;7.97;3.03;;;;;;;;;;5074112;28;20119;-58
2023/01/20 09:08:08;;;;;;;6.80;2.40;;;;;;;;;;5074414;28;20480;-58
2023/01/20 09:10:34;;;;;;;6.03;2.08;;;;;;;;;;5074226;28;20045;-59
2023/01/20 09:13:00;;;;;;;5.63;2.97;;;;;;;;;;5073931;28;20028;-59
2023/01/20 09:15:26;;;;;;;7.03;2.72;;;;;;;;;;5074188;28;20052;-59
2023/01/20 09:17:52;;;;;;;6.07;2.72;;;;;;;;;;5073865;28;20056;-59
2023/01/20 09:20:18;;;;;;;6.10;3.10;;;;;;;;;;5074054;28;20039;-59
2023/01/20 09:22:44;;;;;;;4.97;2.33;;;;;;;;;;5073867;28;20123;-58
2023/01/20 09:25:11;;;;;;;6.00;3.22;;;;;;;;;;5073979;28;20020;-59
2023/01/20 09:27:37;;;;;;;6.60;2.65;;;;;;;;;;5074184;28;20373;-59
2023/01/20 09:30:04;;;;;;;6.30;2.72;;;;;;;;;;5073623;28;20036;-59
2023/01/20 09:32:31;;;;;;;5.15;2.28;;;;;;;;;;5073790;28;20089;-60
2023/01/20 09:34:57;;;;;;;8.60;2.67;;;;;;;;;;5072698;28;20419;-59
2023/01/20 09:46:13;;;;;;;5.50;2.45;;;;;;;;;;5073681;28;20036;-59
2023/01/20 09:54:28;;;;;;;5.97;2.22;;;;;;;;;;5073276;28;20541;-57
2023/01/20 09:56:56;;;;;;;5.60;2.60;;;;;;;;;;5073214;28;20393;-59
2023/01/20 09:59:32;;;;;;;4.82;2.30;;;;;;;;;;5055346;28;20025;-59
2023/01/20 10:02:03;;;;;;;4.88;1.98;;;;;;;;;;5073144;28;20066;-59
2023/01/20 10:04:38;;;;;;;4.85;2.35;;;;;;;;;;5073252;28;20350;-59
2023/01/20 10:07:09;;;;;;;4.93;2.42;;;;;;;;;;5072694;28;20048;-59
2023/01/20 10:09:44;;;;;;;5.40;2.28;;;;;;;;;;5073289;28;20023;-59
2023/01/20 10:12:13;;;;;;;5.13;2.30;;;;;;;;;;5073076;28;20032;-59
2023/01/20 10:14:41;;;;;;;8.40;2.50;;;;;;;;;;5073331;28;20023;-59
2023/01/20 10:17:14;;;;;;;6.82;2.70;;;;;;;;;;5073331;28;20059;-59
2023/01/20 10:19:45;;;;;;;5.50;2.25;;;;;;;;;;5073458;28;20021;-59
2023/01/20 10:22:26;;;;;;;5.70;2.45;;;;;;;;;;5072809;28;20020;-59
2023/01/20 10:25:05;;;;;;;6.30;2.88;;;;;;;;;;5072275;28;20496;-59
2023/01/20 10:27:32;;;;;;;5.25;1.92;;;;;;;;;;5072639;28;20036;-59
2023/01/20 10:30:05;;;;;;;6.10;2.58;;;;;;;;;;5071988;28;20020;-58
2023/01/20 10:32:35;;;;;;;6.32;2.40;;;;;;;;;;5072715;28;20051;-59
2023/01/20 10:35:06;;;;;;;5.65;2.40;;;;;;;;;;5054531;28;20027;-59
2023/01/20 10:37:32;;;;;;;4.20;2.10;;;;;;;;;;5072608;28;20028;-59
2023/01/20 10:40:06;;;;;;;4.15;1.80;;;;;;;;;;5070624;28;20036;-58
2023/01/20 10:42:33;;;;;;;4.80;2.05;;;;;;;;;;5070848;28;20430;-58
2023/01/20 10:44:59;;;;;;;3.97;2.42;;;;;;;;;;5071288;28;20082;-58
2023/01/20 10:47:35;;;;;;;6.00;2.38;;;;;;;;;;5071223;28;20460;-59
2023/01/20 10:50:01;;;;;;;6.05;2.30;;;;;;;;;;5072187;28;20021;-59
2023/01/20 10:52:44;;;;;;;6.18;2.38;;;;;;;;;;5071127;28;20082;-58
2023/01/20 10:55:20;;;;;;;8.27;2.83;;;;;;;;;;5068357;28;20032;-58
2023/01/20 10:58:01;;;;;;;6.03;2.38;;;;;;;;;;5070637;28;20035;-59
2023/01/20 11:00:29;;;;;;;5.57;2.50;;;;;;;;;;5072225;28;20035;-59
2023/01/20 11:02:59;;;;;;;5.00;2.47;;;;;;;;;;5071910;28;20451;-58
2023/01/20 11:05:27;;;;;;;6.38;2.65;;;;;;;;;;5071859;28;20031;-58
2023/01/20 11:07:53;;;;;;;6.18;2.25;;;;;;;;;;5070672;28;20124;-58
2023/01/20 11:10:22;;;;;;;5.28;2.10;;;;;;;;;;5070208;28;20012;-58
2023/01/20 11:12:49;;;;;;;5.43;1.98;;;;;;;;;;5069888;28;20029;-59
2023/01/20 11:15:17;;;;;;;5.60;2.33;;;;;;;;;;5067757;28;20016;-58
2023/01/20 11:17:43;;;;;;;4.13;2.35;;;;;;;;;;5070666;28;20036;-61
2023/01/20 11:20:13;;;;;;;8.13;2.20;;;;;;;;;;5072167;28;20031;-59
2023/01/20 11:22:44;;;;;;;4.85;2.28;;;;;;;;;;5072120;28;20463;-59
2023/01/20 11:25:22;;;;;;;5.88;2.20;;;;;;;;;;5071670;28;20469;-58
2023/01/20 11:27:48;;;;;;;5.63;2.45;;;;;;;;;;5071211;28;20033;-58
2023/01/20 11:30:23;;;;;;;9.65;2.20;;;;;;;;;;5071678;28;20443;-59
2023/01/20 11:33:06;;;;;;;4.30;2.17;;;;;;;;;;5071347;28;20036;-59
2023/01/20 11:35:33;;;;;;;3.15;1.60;;;;;;;;;;5071464;28;20301;-59
2023/01/20 11:38:00;;;;;;;5.82;2.20;;;;;;;;;;5071207;28;20032;-58
2023/01/20 11:40:28;;;;;;;5.35;2.28;;;;;;;;;;5071498;28;20051;-59
2023/01/20 11:42:54;;;;;;;6.75;1.95;;;;;;;;;;5070830;28;20116;-59
2023/01/20 11:45:26;;;;;;;5.93;1.67;;;;;;;;;;5069620;28;20075;-58
2023/01/20 11:48:00;;;;;;;5.32;2.10;;;;;;;;;;5066892;28;20101;-58
2023/01/20 11:50:37;;;;;;;3.60;1.63;;;;;;;;;;5076893;28;20107;-59
2023/01/20 11:53:20;;;;;;;6.95;2.63;;;;;;;;;;5086991;28;20032;-58
2023/01/20 11:55:49;;;;;;;5.32;2.10;;;;;;;;;;5070327;28;20032;-59
2023/01/20 11:58:17;;;;;;;5.97;2.40;;;;;;;;;;5082052;28;20056;-58
2023/01/20 12:00:43;;;;;;;7.07;2.50;;;;;;;;;;5056634;28;20016;-58
2023/01/20 12:03:12;;;;;;;4.32;2.17;;;;;;;;;;5087366;28;20488;-59
2023/01/20 12:05:42;;;;;;;3.30;1.80;;;;;;;;;;5077476;28;20035;-59
2023/01/20 12:08:16;;;;;;;9.95;2.88;;;;;;;;;;5049629;28;20403;-58
2023/01/20 12:10:42;;;;;;;2.88;1.63;;;;;;;;;;5050121;28;20025;-59
2023/01/20 12:13:11;;;;;;;4.18;1.92;;;;;;;;;;5050801;28;20633;-59
2023/01/20 12:15:39;;;;;;;5.72;2.30;;;;;;;;;;5050724;28;20100;-57
2023/01/20 12:18:11;;;;;;;4.68;1.92;;;;;;;;;;5050680;28;20028;-57
2023/01/20 12:20:46;;;;;;;4.28;2.03;;;;;;;;;;5050405;28;20115;-59
2023/01/20 12:23:31;;;;;;;4.60;1.67;;;;;;;;;;5049590;28;20047;-58
2023/01/20 12:26:00;;;;;;;3.67;1.50;;;;;;;;;;5046414;28;20013;-58
2023/01/20 12:28:47;;;;;;;5.47;2.25;;;;;;;;;;5049425;28;20404;-59
2023/01/20 12:31:18;;;;;;;4.30;1.65;;;;;;;;;;5032991;28;20409;-58
2023/01/20 12:33:47;;;;;;;6.40;1.73;;;;;;;;;;5049829;28;20047;-59
2023/01/20 12:36:19;;;;;;;6.43;2.33;;;;;;;;;;5049333;28;20045;-59
2023/01/20 12:39:03;;;;;;;4.82;1.67;;;;;;;;;;5050726;28;20032;-59
2023/01/20 12:41:48;;;;;;;6.03;1.52;;;;;;;;;;5050851;28;20480;-59
2023/01/20 12:44:20;;;;;;;6.72;1.80;;;;;;;;;;5049122;28;20538;-59
2023/01/20 12:46:53;;;;;;;10.70;2.03;;;;;;;;;;5048791;28;20140;-59
2023/01/20 12:49:19;;;;;;;8.18;1.88;;;;;;;;;;5046219;28;20504;-59
2023/01/20 12:52:04;;;;;;;4.97;1.67;;;;;;;;;;5048844;28;20025;-59
2023/01/20 12:54:30;;;;;;;6.95;2.50;;;;;;;;;;5047737;28;20089;-58
2023/01/20 12:57:02;;;;;;;12.27;2.15;;;;;;;;;;5048978;28;20142;-57
2023/01/20 12:59:48;;;;;;;10.68;1.70;;;;;;;;;;5048982;28;20032;-58
2023/01/20 13:02:36;;;;;;;13.02;1.80;;;;;;;;;;5048099;28;20067;-56
2023/01/20 13:05:17;;;;;;;7.68;1.83;;;;;;;;;;5046359;28;20079;-59
2023/01/20 13:07:55;;;;;;;6.53;2.03;;;;;;;;;;5046695;28;20040;-58
2023/01/20 13:10:35;;;;;;;5.32;1.65;;;;;;;;;;5039005;28;20033;-58
2023/01/20 13:13:19;;;;;;;7.90;2.00;;;;;;;;;;5049898;28;20025;-57
2023/01/20 13:15:50;;;;;;;5.47;1.75;;;;;;;;;;5050551;28;20040;-59
2023/01/20 13:18:16;;;;;;;7.72;1.83;;;;;;;;;;5052489;28;20025;-59
2023/01/20 13:20:44;;;;;;;4.75;1.98;;;;;;;;;;5052178;28;20071;-58
2023/01/20 13:23:12;;;;;;;10.82;3.65;;;;;;;;;;5052515;28;20515;-58
2023/01/20 13:25:38;;;;;;;4.50;1.50;;;;;;;;;;5054121;28;20017;-59
2023/01/20 13:28:06;;;;;;;4.97;1.58;;;;;;;;;;5053514;28;20465;-59
2023/01/20 13:30:38;;;;;;;3.15;1.33;;;;;;;;;;5053762;28;20492;-59
2023/01/20 13:33:15;;;;;;;4.43;1.60;;;;;;;;;;5053692;28;20112;-58
2023/01/20 13:35:41;;;;;;;4.65;1.38;;;;;;;;;;5053647;28;20033;-58
2023/01/20 13:38:16;;;;;;;3.17;1.48;;;;;;;;;;5054030;28;20070;-59
2023/01/20 13:40:44;;;;;;;5.83;1.93;;;;;;;;;;5053693;28;20025;-58
2023/01/20 13:43:25;;;;;;;5.45;1.55;;;;;;;;;;5053932;28;20029;-57
2023/01/20 13:46:17;;;;;;;3.90;1.27;;;;;;;;;;5053435;28;20029;-59
2023/01/20 13:49:04;;;;;;;5.13;1.48;;;;;;;;;;5015710;28;20059;-58
2023/01/20 13:51:35;;;;;;;3.75;1.30;;;;;;;;;;5053032;28;20033;-58
2023/01/20 13:54:20;;;;;;;3.40;1.30;;;;;;;;;;5053244;28;20040;-59
2023/01/20 13:56:46;;;;;;;2.97;1.10;;;;;;;;;;5053247;28;20029;-59
2023/01/20 13:59:12;;;;;;;3.22;1.30;;;;;;;;;;5053282;28;20028;-60
2023/01/20 14:01:38;;;;;;;3.95;1.50;;;;;;;;;;5053687;28;20025;-59
2023/01/20 14:04:05;;;;;;;7.63;1.70;;;;;;;;;;5053118;28;20044;-58
2023/01/20 14:06:32;;;;;;;3.85;1.35;;;;;;;;;;5052795;28;20036;-58
2023/01/20 14:09:00;;;;;;;3.47;1.42;;;;;;;;;;5051179;28;20036;-58
2023/01/20 14:11:27;;;;;;;5.65;1.70;;;;;;;;;;5052407;28;20029;-60
2023/01/20 14:13:57;;;;;;;3.60;1.40;;;;;;;;;;5052858;28;20025;-58
2023/01/20 14:16:26;;;;;;;5.05;1.60;;;;;;;;;;5052531;28;20474;-59
2023/01/20 14:18:53;;;;;;;4.15;1.05;;;;;;;;;;5052753;28;20512;-58
2023/01/20 14:21:24;;;;;;;3.55;1.33;;;;;;;;;;5052681;28;20052;-59
2023/01/20 14:23:50;;;;;;;4.82;1.88;;;;;;;;;;5052767;28;20033;-58
2023/01/20 14:26:19;;;;;;;4.00;1.20;;;;;;;;;;5052694;28;20029;-59
2023/01/20 14:28:50;;;;;;;3.10;1.20;;;;;;;;;;5052534;28;20031;-58
2023/01/20 14:31:22;;;;;;;3.67;1.30;;;;;;;;;;5052309;28;20086;-57
2023/01/20 14:33:53;;;;;;;5.80;1.60;;;;;;;;;;5049296;28;20033;-58
2023/01/20 14:36:20;;;;;;;3.50;1.20;;;;;;;;;;5051936;28;20031;-58
2023/01/20 14:38:52;;;;;;;5.00;1.40;;;;;;;;;;5051963;28;20025;-57
2023/01/20 14:41:25;;;;;;;4.25;1.23;;;;;;;;;;5052311;28;20053;-59
2023/01/20 14:43:51;;;;;;;3.58;1.35;;;;;;;;;;5051894;28;20057;-59
2023/01/20 14:46:17;;;;;;;3.33;0.95;;;;;;;;;;5051850;28;20040;-58
2023/01/20 14:48:44;;;;;;;2.67;1.10;;;;;;;;;;5051259;28;20033;-59
2023/01/20 14:51:10;;;;;;;3.30;1.45;;;;;;;;;;5051029;28;20363;-59
2023/01/20 14:53:36;;;;;;;2.92;1.40;;;;;;;;;;5052265;28;20631;-60
2023/01/20 14:56:06;;;;;;;5.00;1.52;;;;;;;;;;5052077;28;20032;-59
2023/01/20 14:58:33;;;;;;;2.83;1.13;;;;;;;;;;5052260;28;20039;-59
2023/01/20 15:01:00;;;;;;;3.90;1.10;;;;;;;;;;5051970;28;20508;-59
2023/01/20 15:03:27;;;;;;;4.22;1.27;;;;;;;;;;5050702;28;20092;-59
2023/01/20 15:05:53;;;;;;;3.25;1.17;;;;;;;;;;5033816;28;20028;-59
2023/01/20 15:08:21;;;;;;;3.75;1.27;;;;;;;;;;5052052;28;20571;-58
2023/01/20 15:10:47;;;;;;;2.35;0.90;;;;;;;;;;5051314;28;20029;-59
2023/01/20 15:13:43;;;;;;;3.50;1.13;;;;;;;;;;5051609;28;20025;-59
2023/01/20 15:16:19;;;;;;;2.72;1.17;;;;;;;;;;5030258;28;20106;-59